Time;durP1;ratioP1;P1;durP2;ratioP2;P2;SDS_P1;SDS_P2;PMS_P1;PMS_P2;Temp;Humidity;BMP_temperature;BMP_pressure;BME280_temperature;BME280_humidity;BME280_pressure;Samples;Min_cycle;Max_cycle;Signal;HPM_P1;HPM_P2
2022/07/07 00:00:07;;;;;;;5.20;2.65;;;17.50;99.90;;;;;;5039031;28;20606;-55
2022/07/07 00:02:33;;;;;;;8.18;2.70;;;17.50;99.90;;;;;;5026771;28;20041;-55
2022/07/07 00:04:59;;;;;;;9.70;3.10;;;17.50;99.90;;;;;;5030568;28;20549;-56
2022/07/07 00:07:25;;;;;;;10.23;3.35;;;17.50;99.90;;;;;;5028196;28;20049;-55
2022/07/07 00:09:51;;;;;;;11.32;3.75;;;17.40;99.90;;;;;;5024710;28;20512;-53
2022/07/07 00:12:17;;;;;;;7.15;3.08;;;17.50;99.90;;;;;;5030139;28;20411;-56
2022/07/07 00:14:42;;;;;;;7.88;3.20;;;17.40;99.90;;;;;;5029309;28;20041;-56
2022/07/07 00:17:08;;;;;;;7.13;2.67;;;17.30;99.90;;;;;;5040140;28;20049;-56
2022/07/07 00:19:34;;;;;;;6.75;2.80;;;17.20;99.90;;;;;;5033385;28;20102;-56
2022/07/07 00:22:00;;;;;;;7.47;2.40;;;17.10;99.90;;;;;;5052255;28;20040;-57
2022/07/07 00:24:26;;;;;;;9.40;2.80;;;17.10;99.90;;;;;;5035822;28;20048;-56
2022/07/07 00:26:52;;;;;;;9.57;3.10;;;17.10;99.90;;;;;;5015925;28;20454;-56
2022/07/07 00:29:17;;;;;;;7.93;2.70;;;17.00;99.90;;;;;;5029242;28;20044;-56
2022/07/07 00:31:43;;;;;;;10.00;3.38;;;17.00;99.90;;;;;;5031257;28;20040;-55
2022/07/07 00:34:09;;;;;;;5.38;2.42;;;16.80;99.90;;;;;;5027490;28;20172;-56
2022/07/07 00:36:36;;;;;;;7.68;2.72;;;16.80;99.90;;;;;;5014430;28;20131;-58
2022/07/07 00:39:02;;;;;;;6.30;2.67;;;16.70;99.90;;;;;;5034421;28;20164;-56
2022/07/07 00:41:28;;;;;;;8.82;3.33;;;16.70;99.90;;;;;;5039792;28;20136;-55
2022/07/07 00:43:53;;;;;;;6.50;3.22;;;16.70;99.90;;;;;;5042615;28;20032;-58
2022/07/07 00:46:20;;;;;;;9.88;3.50;;;16.60;99.90;;;;;;5032958;28;20044;-57
2022/07/07 00:48:46;;;;;;;7.85;3.10;;;16.60;99.90;;;;;;5038310;28;20051;-56
2022/07/07 00:51:12;;;;;;;9.02;3.25;;;16.60;99.90;;;;;;5047706;28;20049;-56
2022/07/07 00:53:39;;;;;;;7.35;3.00;;;16.60;99.90;;;;;;5035440;28;20407;-54
2022/07/07 00:56:06;;;;;;;5.13;3.33;;;16.60;99.90;;;;;;5034327;28;20053;-56
2022/07/07 00:58:33;;;;;;;12.30;3.40;;;16.60;99.90;;;;;;5036635;28;20703;-55
2022/07/07 01:01:00;;;;;;;9.40;3.42;;;16.60;99.90;;;;;;5035065;28;20492;-55
2022/07/07 01:03:26;;;;;;;9.98;3.78;;;16.50;99.90;;;;;;5033281;28;20076;-56
2022/07/07 01:05:53;;;;;;;7.57;3.08;;;16.50;99.90;;;;;;5018709;28;20037;-55
2022/07/07 01:08:19;;;;;;;6.80;2.88;;;16.50;99.90;;;;;;5025529;28;20099;-55
2022/07/07 01:10:46;;;;;;;12.77;3.65;;;16.60;99.90;;;;;;5041508;28;20077;-55
2022/07/07 01:13:12;;;;;;;10.85;3.10;;;16.60;99.90;;;;;;5038214;28;20126;-56
2022/07/07 01:15:38;;;;;;;8.55;3.33;;;16.60;99.90;;;;;;5036953;28;20452;-55
2022/07/07 01:18:04;;;;;;;14.68;3.95;;;16.60;99.90;;;;;;5043659;28;20502;-55
2022/07/07 01:20:30;;;;;;;13.25;3.85;;;16.60;99.90;;;;;;5039244;28;20041;-54
2022/07/07 01:22:57;;;;;;;12.85;3.67;;;16.60;99.90;;;;;;5039379;28;20114;-55
2022/07/07 01:25:23;;;;;;;11.50;4.00;;;16.60;99.90;;;;;;5034052;28;20119;-55
2022/07/07 01:27:49;;;;;;;10.50;3.30;;;16.70;99.90;;;;;;5043326;28;20049;-55
2022/07/07 01:30:16;;;;;;;10.18;3.55;;;16.70;99.90;;;;;;5042125;28;20037;-53
2022/07/07 01:32:42;;;;;;;11.80;3.38;;;16.70;99.90;;;;;;5022801;28;20527;-52
2022/07/07 01:35:09;;;;;;;12.10;3.38;;;16.60;99.90;;;;;;5037687;28;20128;-55
2022/07/07 01:37:35;;;;;;;11.57;3.20;;;16.60;99.90;;;;;;5018626;28;20041;-52
2022/07/07 01:40:01;;;;;;;15.57;4.03;;;16.60;99.90;;;;;;5024905;28;20029;-55
2022/07/07 01:42:27;;;;;;;14.57;4.03;;;16.70;99.90;;;;;;5034165;28;20049;-54
2022/07/07 01:44:53;;;;;;;17.25;4.45;;;16.70;99.90;;;;;;5037929;28;20044;-51
2022/07/07 01:47:21;;;;;;;14.60;3.35;;;16.70;99.90;;;;;;5019612;28;20396;-54
2022/07/07 01:49:47;;;;;;;13.52;2.50;;;16.60;99.90;;;;;;5046324;28;20492;-54
2022/07/07 01:52:13;;;;;;;10.43;3.10;;;16.60;99.90;;;;;;5046191;28;20048;-55
2022/07/07 01:54:39;;;;;;;8.75;2.70;;;16.60;99.90;;;;;;5041731;28;20041;-54
2022/07/07 01:57:06;;;;;;;13.18;2.78;;;16.50;99.90;;;;;;5045175;28;20163;-55
2022/07/07 01:59:33;;;;;;;10.25;2.45;;;16.50;99.90;;;;;;5040519;28;20141;-55
2022/07/07 02:01:59;;;;;;;10.38;2.50;;;16.50;99.90;;;;;;5041898;28;20068;-55
2022/07/07 02:04:25;;;;;;;8.35;2.50;;;16.50;99.90;;;;;;5022935;28;20125;-55
2022/07/07 02:06:51;;;;;;;9.15;1.90;;;16.50;99.90;;;;;;5035443;28;20083;-55
2022/07/07 02:09:17;;;;;;;8.88;2.35;;;16.40;99.90;;;;;;5038234;28;20045;-56
2022/07/07 02:11:43;;;;;;;9.23;2.17;;;16.40;99.90;;;;;;5034771;28;20083;-56
2022/07/07 02:14:09;;;;;;;9.70;2.70;;;16.40;99.90;;;;;;5031127;28;20601;-55
2022/07/07 02:16:36;;;;;;;10.98;2.72;;;16.40;99.90;;;;;;5053658;28;20171;-54
2022/07/07 02:19:04;;;;;;;8.43;2.20;;;16.40;99.90;;;;;;5036929;28;20526;-52
2022/07/07 02:21:30;;;;;;;8.48;2.13;;;16.40;99.90;;;;;;5039002;28;20052;-52
2022/07/07 02:23:57;;;;;;;15.00;2.50;;;16.40;99.90;;;;;;5029344;28;20037;-51
2022/07/07 02:26:23;;;;;;;10.13;3.10;;;16.40;99.90;;;;;;5036435;28;20044;-55
2022/07/07 02:28:49;;;;;;;12.68;3.17;;;16.40;99.90;;;;;;5055005;28;20045;-54
2022/07/07 02:31:15;;;;;;;12.30;2.70;;;16.40;99.90;;;;;;5038222;28;20045;-53
2022/07/07 02:33:41;;;;;;;13.43;3.15;;;16.40;99.90;;;;;;5038576;28;20107;-52
2022/07/07 02:36:08;;;;;;;16.80;4.28;;;16.40;99.90;;;;;;5039934;28;20495;-56
2022/07/07 02:38:36;;;;;;;10.50;3.53;;;16.40;99.90;;;;;;5038767;28;20040;-52
2022/07/07 02:41:02;;;;;;;15.18;3.80;;;16.40;99.90;;;;;;5017657;28;20057;-52
2022/07/07 02:43:28;;;;;;;14.90;3.40;;;16.40;99.90;;;;;;5034441;28;20099;-52
2022/07/07 02:45:54;;;;;;;12.45;3.30;;;16.50;99.90;;;;;;5021246;28;20033;-53
2022/07/07 02:48:22;;;;;;;15.38;3.45;;;16.50;99.90;;;;;;5020825;28;20056;-52
2022/07/07 02:54:29;;;;;;;13.32;3.67;;;16.40;99.90;;;;;;5032731;28;20035;-55
2022/07/07 02:56:55;;;;;;;13.15;2.63;;;16.40;99.90;;;;;;5004570;28;20045;-52
2022/07/07 02:59:21;;;;;;;16.88;4.28;;;16.40;99.90;;;;;;5019836;28;20029;-54
2022/07/07 03:01:46;;;;;;;10.18;2.42;;;16.40;99.90;;;;;;5029607;28;20040;-55
2022/07/07 03:04:12;;;;;;;15.57;2.63;;;16.40;99.90;;;;;;5024920;28;20044;-54
2022/07/07 03:06:38;;;;;;;18.02;2.72;;;16.40;99.90;;;;;;5037680;28;20037;-55
2022/07/07 03:09:04;;;;;;;11.88;2.20;;;16.30;99.90;;;;;;5048101;28;20055;-58
2022/07/07 03:11:29;;;;;;;10.95;2.80;;;16.40;99.90;;;;;;5022450;28;20129;-56
2022/07/07 03:13:55;;;;;;;9.88;1.98;;;16.40;99.90;;;;;;5040682;28;22149;-55
2022/07/07 03:16:21;;;;;;;6.38;2.13;;;16.40;99.90;;;;;;5038140;28;20079;-55
2022/07/07 03:18:47;;;;;;;9.20;2.10;;;16.40;99.90;;;;;;5039127;28;20134;-55
2022/07/07 03:21:12;;;;;;;9.98;2.20;;;16.40;99.90;;;;;;5034672;28;20033;-56
2022/07/07 03:23:38;;;;;;;13.77;2.95;;;16.30;99.90;;;;;;5010055;28;20049;-55
2022/07/07 03:26:04;;;;;;;11.48;1.90;;;16.20;99.90;;;;;;5055099;28;20428;-52
2022/07/07 03:28:29;;;;;;;12.20;2.40;;;16.20;99.90;;;;;;5003163;28;20045;-56
2022/07/07 03:30:55;;;;;;;5.40;1.20;;;16.20;99.90;;;;;;5037550;28;22052;-54
2022/07/07 03:33:21;;;;;;;4.28;1.17;;;16.10;99.90;;;;;;5040557;28;20036;-56
2022/07/07 03:35:46;;;;;;;9.07;1.50;;;15.90;99.90;;;;;;5040636;28;20037;-56
2022/07/07 03:38:12;;;;;;;6.38;1.45;;;15.80;99.90;;;;;;5036288;28;20052;-55
2022/07/07 03:40:38;;;;;;;6.90;1.77;;;15.70;99.90;;;;;;5022658;28;20033;-55
2022/07/07 03:43:04;;;;;;;10.10;2.15;;;15.60;99.90;;;;;;5037343;28;20033;-55
2022/07/07 03:45:30;;;;;;;7.57;1.88;;;15.60;99.90;;;;;;5032280;28;20136;-55
2022/07/07 03:47:55;;;;;;;8.45;1.77;;;15.60;99.90;;;;;;5036286;28;20502;-55
2022/07/07 03:50:21;;;;;;;8.15;1.90;;;15.60;99.90;;;;;;5024250;28;20033;-55
2022/07/07 03:52:47;;;;;;;9.13;2.15;;;15.60;99.90;;;;;;5032820;28;20513;-55
2022/07/07 03:55:12;;;;;;;8.45;2.03;;;15.60;99.90;;;;;;5041562;28;20044;-55
2022/07/07 03:57:39;;;;;;;17.48;2.55;;;15.60;99.90;;;;;;5030703;28;20042;-54
2022/07/07 04:00:05;;;;;;;9.63;2.22;;;15.60;99.90;;;;;;5051771;28;20043;-54
2022/07/07 04:02:31;;;;;;;6.43;1.75;;;15.60;99.90;;;;;;5018424;28;20041;-53
2022/07/07 04:04:57;;;;;;;6.82;1.85;;;15.60;99.90;;;;;;5035065;28;20277;-54
2022/07/07 04:07:23;;;;;;;6.13;1.10;;;15.60;99.90;;;;;;5043207;28;20044;-55
2022/07/07 04:09:49;;;;;;;4.43;1.60;;;15.60;99.90;;;;;;5039574;28;20064;-55
2022/07/07 04:12:14;;;;;;;3.25;1.08;;;15.50;99.90;;;;;;5042228;28;20049;-56
2022/07/07 04:14:40;;;;;;;6.05;1.20;;;15.40;99.90;;;;;;5042321;28;20043;-56
2022/07/07 04:17:06;;;;;;;8.05;1.88;;;15.30;99.90;;;;;;5036789;28;20036;-56
2022/07/07 04:19:32;;;;;;;5.55;1.40;;;15.30;99.90;;;;;;5023041;28;20045;-56
2022/07/07 04:21:58;;;;;;;9.95;1.80;;;15.30;99.90;;;;;;5033000;28;20613;-56
2022/07/07 04:24:23;;;;;;;9.65;2.22;;;15.40;99.90;;;;;;5030100;28;20037;-57
2022/07/07 04:26:49;;;;;;;7.13;1.85;;;15.40;99.90;;;;;;5036011;28;20045;-57
2022/07/07 04:29:15;;;;;;;8.65;1.98;;;15.40;99.90;;;;;;5039532;28;20037;-57
2022/07/07 04:31:44;;;;;;;5.38;1.75;;;15.40;99.90;;;;;;5039458;28;20032;-57
2022/07/07 04:34:14;;;;;;;8.10;1.45;;;15.50;99.90;;;;;;5032354;28;20071;-55
2022/07/07 04:36:40;;;;;;;10.77;1.55;;;15.50;99.90;;;;;;5041376;28;20071;-54
2022/07/07 04:39:07;;;;;;;10.05;2.97;;;15.60;99.90;;;;;;5020596;28;20037;-56
2022/07/07 04:41:34;;;;;;;10.63;2.13;;;15.60;99.90;;;;;;5052939;28;20103;-53
2022/07/07 04:44:00;;;;;;;11.70;2.63;;;15.60;99.90;;;;;;5041983;28;20037;-53
2022/07/07 04:46:25;;;;;;;11.55;2.35;;;15.60;99.90;;;;;;5036508;28;20119;-56
2022/07/07 04:48:51;;;;;;;8.45;2.72;;;15.60;99.90;;;;;;5018135;28;20176;-55
2022/07/07 04:51:17;;;;;;;11.23;3.38;;;15.60;99.90;;;;;;5040672;28;20099;-55
2022/07/07 04:53:42;;;;;;;16.15;3.00;;;15.70;99.90;;;;;;5040587;28;20047;-54
2022/07/07 04:56:08;;;;;;;12.57;2.67;;;15.70;99.90;;;;;;5036057;28;20634;-53
2022/07/07 04:58:34;;;;;;;12.43;3.20;;;15.70;99.90;;;;;;5038395;28;20048;-56
2022/07/07 05:00:59;;;;;;;10.88;2.65;;;15.70;99.90;;;;;;5002351;28;20041;-54
2022/07/07 05:03:25;;;;;;;14.73;2.33;;;15.60;99.90;;;;;;5029040;28;20406;-56
2022/07/07 05:05:51;;;;;;;11.20;2.47;;;15.60;99.90;;;;;;5036479;28;20048;-55
2022/07/07 05:08:16;;;;;;;8.80;2.75;;;15.60;99.90;;;;;;5032785;28;20045;-56
2022/07/07 05:10:42;;;;;;;11.13;2.67;;;15.50;99.90;;;;;;5015472;28;20215;-56
2022/07/07 05:13:08;;;;;;;9.80;2.92;;;15.50;99.90;;;;;;5027769;28;20049;-56
2022/07/07 05:15:33;;;;;;;16.17;3.03;;;15.60;99.90;;;;;;5035257;28;20086;-56
2022/07/07 05:17:59;;;;;;;14.43;2.40;;;15.70;99.90;;;;;;5051100;22;20036;-56
2022/07/07 05:20:25;;;;;;;8.80;2.25;;;15.80;99.90;;;;;;5054193;28;20169;-58
2022/07/07 05:22:51;;;;;;;9.45;2.42;;;15.90;99.90;;;;;;5037585;28;20486;-57
2022/07/07 05:25:16;;;;;;;8.00;1.98;;;16.00;99.90;;;;;;5073006;28;20051;-57
2022/07/07 05:27:44;;;;;;;7.25;2.03;;;16.00;99.90;;;;;;5056099;28;20040;-56
2022/07/07 05:30:11;;;;;;;8.18;1.70;;;16.00;99.90;;;;;;5090335;28;20413;-61
2022/07/07 05:32:37;;;;;;;12.00;1.90;;;16.10;99.90;;;;;;5079338;28;20478;-58
2022/07/07 05:35:03;;;;;;;11.55;1.90;;;16.20;99.90;;;;;;5056901;28;20108;-58
2022/07/07 05:37:29;;;;;;;8.20;2.45;;;16.30;99.90;;;;;;5071302;28;20509;-58
2022/07/07 05:39:54;;;;;;;8.20;1.98;;;16.50;99.90;;;;;;5048935;28;20166;-58
2022/07/07 05:42:20;;;;;;;7.40;1.60;;;16.40;99.90;;;;;;5060020;28;20040;-57
2022/07/07 05:44:46;;;;;;;12.95;2.67;;;16.40;99.90;;;;;;5031935;28;20044;-59
2022/07/07 05:47:11;;;;;;;5.10;1.73;;;16.30;99.90;;;;;;5044697;28;20268;-59
2022/07/07 05:49:37;;;;;;;8.73;1.52;;;16.30;99.90;;;;;;5042275;28;20041;-58
2022/07/07 05:52:04;;;;;;;9.15;2.20;;;16.10;99.90;;;;;;5050694;28;20144;-59
2022/07/07 05:54:29;;;;;;;8.32;1.88;;;16.00;99.90;;;;;;5061626;28;20040;-59
2022/07/07 05:56:56;;;;;;;10.05;1.67;;;16.00;99.90;;;;;;5049230;28;20464;-61
2022/07/07 05:59:22;;;;;;;8.90;1.58;;;16.10;99.90;;;;;;5085871;28;20040;-61
2022/07/07 06:01:47;;;;;;;8.55;1.95;;;16.30;99.90;;;;;;5078885;27;20632;-60
2022/07/07 06:04:13;;;;;;;7.30;2.28;;;16.40;99.90;;;;;;5046314;28;20097;-59
2022/07/07 06:06:39;;;;;;;9.25;1.67;;;16.50;99.90;;;;;;5055002;28;20114;-59
2022/07/07 06:09:04;;;;;;;8.65;2.55;;;16.40;99.90;;;;;;5074989;28;20131;-59
2022/07/07 06:11:30;;;;;;;7.03;1.60;;;16.30;99.90;;;;;;5037917;28;20040;-60
2022/07/07 06:13:56;;;;;;;5.25;0.90;;;16.30;99.90;;;;;;5079070;28;20059;-57
2022/07/07 06:16:38;;;;;;;7.47;1.45;;;16.30;99.90;;;;;;5042043;28;20048;-59
2022/07/07 06:19:11;;;;;;;5.32;0.98;;;16.10;99.90;;;;;;5045263;28;20047;-58
2022/07/07 06:21:38;;;;;;;4.50;0.70;;;16.20;99.90;;;;;;5051951;28;20079;-58
2022/07/07 06:24:04;;;;;;;3.00;0.93;;;16.30;99.90;;;;;;5049897;28;20072;-58
2022/07/07 06:26:30;;;;;;;10.07;1.30;;;16.40;99.90;;;;;;5064415;28;20560;-56
2022/07/07 06:28:56;;;;;;;5.65;1.48;;;16.40;99.90;;;;;;5052814;28;20074;-57
2022/07/07 06:31:22;;;;;;;6.07;1.00;;;16.50;99.90;;;;;;5049347;28;20102;-58
2022/07/07 06:33:48;;;;;;;5.78;0.70;;;16.60;99.90;;;;;;5062303;28;20435;-57
2022/07/07 06:36:13;;;;;;;3.45;0.70;;;16.80;99.90;;;;;;5046102;28;20054;-58
2022/07/07 06:38:39;;;;;;;3.85;1.30;;;16.70;99.90;;;;;;5050997;28;20127;-59
2022/07/07 06:41:05;;;;;;;9.10;1.10;;;16.70;99.90;;;;;;5080096;28;20051;-59
2022/07/07 06:43:31;;;;;;;7.95;1.10;;;16.60;99.90;;;;;;5050178;28;20102;-57
2022/07/07 06:45:57;;;;;;;7.85;1.30;;;16.70;99.90;;;;;;5050257;28;20102;-60
2022/07/07 06:48:23;;;;;;;9.88;1.48;;;16.80;99.90;;;;;;5051955;28;20048;-59
2022/07/07 06:50:49;;;;;;;6.18;1.95;;;16.80;99.90;;;;;;5049229;28;20047;-58
2022/07/07 06:53:15;;;;;;;7.32;1.38;;;16.90;99.90;;;;;;5046952;28;20036;-57
2022/07/07 06:55:41;;;;;;;4.63;1.33;;;16.80;99.90;;;;;;5052037;28;20067;-57
2022/07/07 06:58:08;;;;;;;7.22;1.60;;;16.70;99.90;;;;;;5069287;28;20048;-60
2022/07/07 07:00:33;;;;;;;6.75;1.58;;;16.60;99.90;;;;;;5067064;28;20387;-61
2022/07/07 07:03:00;;;;;;;4.63;1.98;;;16.40;99.90;;;;;;5055626;28;20101;-57
2022/07/07 07:05:26;;;;;;;9.50;1.35;;;16.40;99.90;;;;;;5082351;28;20124;-56
2022/07/07 07:07:52;;;;;;;5.35;1.30;;;16.30;99.90;;;;;;5055640;28;20048;-57
2022/07/07 07:10:20;;;;;;;6.95;1.85;;;16.30;99.90;;;;;;5052810;28;20039;-57
2022/07/07 07:12:46;;;;;;;9.50;1.88;;;16.40;99.90;;;;;;5065811;28;20048;-56
2022/07/07 07:15:12;;;;;;;8.65;2.05;;;16.50;99.90;;;;;;5027869;28;20113;-61
2022/07/07 07:17:37;;;;;;;7.80;1.45;;;16.40;99.90;;;;;;5045756;28;20047;-60
2022/07/07 07:20:04;;;;;;;6.75;1.35;;;16.40;99.90;;;;;;5038322;28;20570;-59
2022/07/07 07:22:37;;;;;;;4.38;1.15;;;16.40;99.90;;;;;;5051696;28;20066;-57
2022/07/07 07:25:03;;;;;;;6.72;1.45;;;16.60;99.90;;;;;;5060270;28;20340;-59
2022/07/07 07:27:29;;;;;;;8.43;1.38;;;16.70;99.90;;;;;;5045261;28;20070;-60
2022/07/07 07:29:54;;;;;;;4.90;1.20;;;16.70;99.90;;;;;;5042022;28;20123;-59
2022/07/07 07:32:20;;;;;;;7.85;1.40;;;16.80;99.90;;;;;;5053685;28;20510;-59
2022/07/07 07:34:46;;;;;;;5.97;1.05;;;16.90;99.90;;;;;;5043431;28;20265;-59
2022/07/07 07:37:12;;;;;;;4.28;1.00;;;17.10;99.90;;;;;;5038557;28;20045;-61
2022/07/07 07:39:37;;;;;;;5.78;1.48;;;17.10;99.90;;;;;;5074822;28;20410;-58
2022/07/07 07:42:03;;;;;;;6.20;2.28;;;17.20;99.90;;;;;;5057033;28;20206;-59
2022/07/07 07:47:13;;;;;;;8.48;1.40;;;17.20;99.90;;;;;;5061353;28;20040;-61
2022/07/07 07:49:39;;;;;;;11.65;2.05;;;17.10;99.90;;;;;;5048037;28;20404;-58
2022/07/07 07:52:05;;;;;;;8.32;1.65;;;17.10;99.90;;;;;;5056932;28;20043;-59
2022/07/07 07:54:31;;;;;;;7.32;1.67;;;17.10;99.90;;;;;;5062224;28;20114;-59
2022/07/07 07:56:57;;;;;;;10.70;1.73;;;17.10;99.90;;;;;;5058695;28;20066;-60
2022/07/07 07:59:22;;;;;;;8.65;2.03;;;17.10;99.90;;;;;;5059191;28;20044;-61
2022/07/07 08:01:48;;;;;;;11.52;2.83;;;17.10;99.90;;;;;;5061215;28;20502;-60
2022/07/07 08:04:14;;;;;;;9.32;2.25;;;17.20;99.90;;;;;;5059945;28;20059;-59
2022/07/07 08:06:40;;;;;;;9.52;1.95;;;17.30;99.90;;;;;;5055768;28;20298;-56
2022/07/07 08:09:06;;;;;;;10.75;2.03;;;17.40;99.90;;;;;;5060026;28;20055;-57
2022/07/07 08:11:32;;;;;;;8.82;1.80;;;17.30;99.90;;;;;;5082211;28;20045;-60
2022/07/07 08:13:58;;;;;;;8.18;3.33;;;17.30;99.90;;;;;;5067318;28;20036;-59
2022/07/07 08:16:23;;;;;;;10.10;1.98;;;17.40;99.90;;;;;;5063280;28;20078;-59
2022/07/07 08:18:49;;;;;;;11.00;2.00;;;17.30;99.90;;;;;;5095014;28;20417;-60
2022/07/07 08:21:15;;;;;;;7.13;1.58;;;17.40;99.90;;;;;;5080345;28;20055;-58
2022/07/07 08:23:41;;;;;;;7.63;1.50;;;17.50;99.90;;;;;;5058881;28;20032;-58
2022/07/07 08:26:06;;;;;;;9.93;1.73;;;17.50;99.90;;;;;;5073450;28;20063;-60
2022/07/07 08:28:32;;;;;;;10.38;2.15;;;17.50;99.90;;;;;;5066652;28;20044;-61
2022/07/07 08:30:58;;;;;;;8.82;2.47;;;17.60;99.90;;;;;;5042948;28;20092;-59
2022/07/07 08:33:24;;;;;;;7.28;1.55;;;17.70;99.90;;;;;;5058882;28;20040;-59
2022/07/07 08:35:50;;;;;;;7.07;1.80;;;17.80;99.90;;;;;;5075977;28;20040;-59
2022/07/07 08:38:15;;;;;;;6.75;1.35;;;18.10;99.90;;;;;;5062109;28;21044;-59
2022/07/07 08:40:42;;;;;;;8.68;2.10;;;18.30;99.90;;;;;;5075425;28;20050;-59
2022/07/07 08:43:08;;;;;;;6.13;1.77;;;18.40;99.90;;;;;;5063896;28;20071;-61
2022/07/07 08:45:33;;;;;;;7.43;1.65;;;18.30;99.90;;;;;;5094320;28;20372;-59
2022/07/07 08:48:00;;;;;;;8.07;1.73;;;18.10;99.90;;;;;;5060958;28;20055;-60
2022/07/07 08:50:26;;;;;;;8.30;1.80;;;17.90;99.90;;;;;;5060392;28;20294;-59
2022/07/07 08:52:54;;;;;;;8.25;2.20;;;17.70;99.90;;;;;;5059013;28;20044;-59
2022/07/07 08:55:22;;;;;;;6.97;1.50;;;17.50;99.90;;;;;;5071966;28;20063;-59
2022/07/07 08:57:50;;;;;;;7.53;1.48;;;17.60;99.90;;;;;;5051855;28;20043;-60
2022/07/07 09:00:17;;;;;;;5.70;1.30;;;17.50;99.90;;;;;;5048528;28;20344;-58
2022/07/07 09:02:43;;;;;;;5.15;1.33;;;17.50;99.90;;;;;;5042645;28;20055;-57
2022/07/07 09:05:09;;;;;;;7.28;1.60;;;17.60;99.90;;;;;;5073750;28;20039;-59
2022/07/07 09:07:49;;;;;;;9.05;1.60;;;17.80;99.90;;;;;;5058526;28;20391;-56
2022/07/07 09:10:37;;;;;;;8.18;1.95;;;17.90;99.90;;;;;;5058601;28;20036;-59
2022/07/07 09:13:31;;;;;;;8.50;1.83;;;18.00;99.90;;;;;;5066842;28;20123;-59
2022/07/07 09:16:04;;;;;;;10.85;2.30;;;18.10;99.90;;;;;;5060843;28;20122;-61
2022/07/07 09:18:38;;;;;;;4.53;1.05;;;17.90;99.90;;;;;;5040263;28;20436;-59
2022/07/07 09:21:24;;;;;;;8.70;1.33;;;17.80;99.90;;;;;;5054698;28;20049;-58
2022/07/07 09:23:55;;;;;;;10.43;1.65;;;17.80;99.90;;;;;;5057382;28;20525;-57
2022/07/07 09:26:54;;;;;;;13.32;1.70;;;17.80;99.90;;;;;;5053462;28;20446;-58
2022/07/07 09:29:22;;;;;;;8.48;1.85;;;17.90;99.90;;;;;;5066025;28;20509;-61
2022/07/07 09:32:01;;;;;;;6.05;1.48;;;17.90;99.90;;;;;;5056398;28;20043;-58
2022/07/07 09:34:32;;;;;;;8.80;1.67;;;17.90;99.90;;;;;;5071608;28;20151;-57
2022/07/07 09:39:48;;;;;;;7.93;1.35;;;17.80;99.90;;;;;;5090846;28;20113;-58
2022/07/07 09:42:22;;;;;;;6.45;1.10;;;18.00;99.90;;;;;;5046885;28;20040;-57
2022/07/07 09:44:56;;;;;;;7.20;1.13;;;18.20;99.90;;;;;;5049819;28;20490;-57
2022/07/07 09:47:23;;;;;;;4.95;1.13;;;18.20;99.90;;;;;;5040293;28;20519;-62
2022/07/07 09:50:10;;;;;;;7.55;1.48;;;18.20;99.90;;;;;;5050784;28;20490;-59
2022/07/07 09:52:39;;;;;;;10.73;1.75;;;18.20;99.90;;;;;;5044922;28;20051;-59
2022/07/07 09:55:08;;;;;;;11.23;1.58;;;18.00;99.90;;;;;;5055276;28;20158;-61
2022/07/07 09:57:34;;;;;;;10.07;2.78;;;17.80;99.90;;;;;;5070214;28;20360;-60
2022/07/07 10:00:00;;;;;;;10.63;1.88;;;17.60;99.90;;;;;;5091873;27;20043;-58
2022/07/07 10:02:29;;;;;;;10.32;2.03;;;17.50;99.90;;;;;;5051731;28;20560;-58
2022/07/07 10:04:58;;;;;;;11.57;2.63;;;17.40;99.90;;;;;;5035411;28;20491;-59
2022/07/07 10:07:29;;;;;;;8.93;1.98;;;17.30;99.90;;;;;;5049284;28;20059;-59
2022/07/07 10:09:57;;;;;;;9.85;2.25;;;17.40;99.90;;;;;;5051354;28;20044;-60
2022/07/07 10:12:27;;;;;;;10.52;2.58;;;17.40;99.90;;;;;;5063716;28;20125;-59
2022/07/07 10:15:04;;;;;;;12.40;2.65;;;17.40;99.90;;;;;;5054003;28;20041;-58
2022/07/07 10:17:30;;;;;;;9.63;2.40;;;17.50;99.90;;;;;;5052870;28;20051;-57
2022/07/07 10:19:57;;;;;;;15.57;2.28;;;17.60;99.90;;;;;;5047301;28;20301;-61
2022/07/07 10:22:27;;;;;;;11.05;2.10;;;17.60;99.90;;;;;;5049505;28;20043;-57
2022/07/07 10:24:58;;;;;;;13.93;3.35;;;17.70;99.90;;;;;;5051458;28;20038;-59
2022/07/07 10:27:26;;;;;;;14.93;2.75;;;17.70;99.90;;;;;;5069860;28;20445;-58
2022/07/07 10:29:57;;;;;;;12.50;3.80;;;17.70;99.90;;;;;;5051140;28;20573;-58
2022/07/07 10:32:34;;;;;;;11.77;2.97;;;17.80;99.90;;;;;;5051439;28;20096;-62
2022/07/07 10:35:09;;;;;;;14.10;3.25;;;17.80;99.90;;;;;;5049271;28;20056;-58
2022/07/07 10:37:53;;;;;;;14.65;3.22;;;17.80;99.90;;;;;;5047248;28;20070;-56
2022/07/07 10:40:27;;;;;;;15.77;3.38;;;17.60;99.90;;;;;;5063856;28;20546;-60
2022/07/07 10:42:52;;;;;;;12.73;3.05;;;17.60;99.90;;;;;;5038888;28;20036;-58
2022/07/07 10:45:19;;;;;;;19.25;3.78;;;17.50;99.90;;;;;;5047641;28;20044;-56
2022/07/07 10:47:45;;;;;;;13.27;2.67;;;17.50;99.90;;;;;;5049861;28;20036;-57
2022/07/07 10:50:43;;;;;;;18.13;3.58;;;17.40;99.90;;;;;;5046415;28;20052;-57
2022/07/07 10:53:30;;;;;;;13.35;3.03;;;17.30;99.90;;;;;;5027500;28;20052;-58
2022/07/07 10:55:57;;;;;;;17.30;2.78;;;17.40;99.90;;;;;;5047397;28;20722;-61
2022/07/07 10:58:53;;;;;;;14.40;2.83;;;17.50;99.90;;;;;;5061934;28;20032;-56
2022/07/07 11:01:19;;;;;;;13.65;2.70;;;17.70;99.90;;;;;;5049676;28;20048;-59
2022/07/07 11:03:45;;;;;;;14.02;3.00;;;17.80;99.90;;;;;;5048560;28;20044;-61
2022/07/07 11:06:10;;;;;;;12.88;2.28;;;17.90;99.90;;;;;;5045849;28;20478;-61
2022/07/07 11:08:38;;;;;;;12.60;2.30;;;18.10;99.90;;;;;;5040243;28;20036;-57
2022/07/07 11:11:05;;;;;;;16.77;2.78;;;18.20;99.90;;;;;;5039126;28;20032;-59
2022/07/07 11:13:36;;;;;;;11.10;2.55;;;18.10;99.90;;;;;;5037268;28;20036;-60
2022/07/07 11:16:23;;;;;;;14.32;2.88;;;18.10;99.90;;;;;;5074776;28;20051;-59
2022/07/07 11:18:57;;;;;;;15.57;2.72;;;18.00;99.90;;;;;;5056558;28;20485;-59
2022/07/07 11:21:42;;;;;;;12.30;2.63;;;18.20;99.90;;;;;;5040705;28;20113;-59
2022/07/07 11:24:17;;;;;;;13.02;2.55;;;18.20;99.90;;;;;;5038693;28;20144;-61
2022/07/07 11:26:52;;;;;;;10.63;2.38;;;18.10;99.90;;;;;;5063177;28;20044;-59
2022/07/07 11:29:18;;;;;;;10.95;2.53;;;18.10;99.90;;;;;;5065333;28;20098;-60
2022/07/07 11:31:43;;;;;;;11.40;2.40;;;18.00;99.90;;;;;;5055947;28;20052;-58
2022/07/07 11:34:12;;;;;;;10.23;2.50;;;18.00;99.90;;;;;;5061929;28;20044;-59
2022/07/07 11:36:38;;;;;;;9.02;2.50;;;17.90;99.90;;;;;;5059814;28;20051;-61
2022/07/07 11:39:06;;;;;;;14.20;3.28;;;17.90;99.90;;;;;;5065356;28;20044;-59
2022/07/07 11:41:45;;;;;;;10.88;2.53;;;18.00;99.90;;;;;;5055483;28;20040;-59
2022/07/07 11:44:22;;;;;;;12.20;2.70;;;18.00;99.90;;;;;;5078223;28;20557;-59
2022/07/07 11:46:49;;;;;;;14.40;2.78;;;18.10;99.90;;;;;;5046411;28;20091;-59
2022/07/07 11:49:20;;;;;;;12.27;2.60;;;17.90;99.90;;;;;;5041627;28;20047;-60
2022/07/07 11:51:46;;;;;;;14.77;3.10;;;17.90;99.90;;;;;;5053522;28;20097;-58
2022/07/07 11:54:13;;;;;;;17.10;3.53;;;17.80;99.90;;;;;;5081606;28;20443;-58
2022/07/07 11:56:38;;;;;;;18.20;3.08;;;17.90;99.90;;;;;;5084157;28;20132;-58
2022/07/07 11:59:07;;;;;;;12.02;2.97;;;17.70;99.90;;;;;;5051098;28;20403;-61
2022/07/07 12:01:38;;;;;;;15.60;3.03;;;17.60;99.90;;;;;;5057324;28;20483;-57
2022/07/07 12:04:20;;;;;;;16.73;3.47;;;17.50;99.90;;;;;;5081242;27;20098;-57
2022/07/07 12:06:47;;;;;;;13.57;3.88;;;17.60;99.90;;;;;;5063476;28;20391;-58
2022/07/07 12:09:13;;;;;;;20.13;5.32;;;17.50;99.90;;;;;;5049600;28;20044;-61
2022/07/07 12:11:41;;;;;;;16.80;3.17;;;17.40;99.90;;;;;;5069123;28;20122;-58
2022/07/07 12:14:09;;;;;;;13.13;3.60;;;17.40;99.90;;;;;;5058849;28;20051;-59
2022/07/07 12:16:49;;;;;;;15.73;3.17;;;17.30;99.90;;;;;;5043405;28;20135;-58
2022/07/07 12:19:15;;;;;;;12.68;3.00;;;17.50;99.90;;;;;;5048751;28;20151;-60
2022/07/07 12:21:46;;;;;;;16.20;3.40;;;17.60;99.90;;;;;;5061572;28;20109;-62
2022/07/07 12:24:13;;;;;;;14.98;3.35;;;17.70;99.90;;;;;;5047684;28;20528;-58
2022/07/07 12:26:48;;;;;;;13.27;2.78;;;17.70;99.90;;;;;;5055015;28;20076;-59
2022/07/07 12:29:19;;;;;;;16.83;3.80;;;17.60;99.90;;;;;;5060021;28;20620;-60
2022/07/07 12:31:49;;;;;;;15.60;3.20;;;17.70;99.90;;;;;;5056743;28;20049;-62
2022/07/07 12:34:17;;;;;;;18.55;3.65;;;17.50;99.90;;;;;;5046397;28;20059;-59
2022/07/07 12:36:44;;;;;;;8.30;2.60;;;17.70;99.90;;;;;;5069430;28;20458;-60
2022/07/07 12:39:10;;;;;;;12.90;2.60;;;17.80;99.90;;;;;;5038276;28;20071;-60
2022/07/07 12:41:38;;;;;;;11.20;2.10;;;17.80;99.90;;;;;;5060849;28;20179;-60
2022/07/07 12:44:21;;;;;;;14.10;2.30;;;17.80;99.90;;;;;;5046503;28;20041;-62
2022/07/07 12:46:47;;;;;;;12.23;2.85;;;17.90;99.90;;;;;;5049971;28;20050;-60
2022/07/07 12:49:13;;;;;;;11.23;2.70;;;17.90;99.90;;;;;;5058999;28;20417;-58
2022/07/07 12:51:42;;;;;;;9.70;2.22;;;17.80;99.90;;;;;;5068259;28;20394;-59
2022/07/07 12:54:20;;;;;;;13.15;2.60;;;17.80;99.90;;;;;;5052480;28;20616;-59